createdAt,value
2022-09-13T00:02:17.888Z,7.47
2022-09-13T00:04:45.736Z,6.47
2022-09-13T00:07:13.449Z,9.88
2022-09-13T00:09:41.164Z,7.15
2022-09-13T00:12:10.276Z,8.25
2022-09-13T00:14:38.048Z,7.13
2022-09-13T00:17:05.815Z,7.05
2022-09-13T00:19:33.913Z,8.80
2022-09-13T00:22:01.602Z,8.07
2022-09-13T00:24:29.324Z,6.75
2022-09-13T00:26:57.008Z,11.85
2022-09-13T00:29:26.084Z,8.55
2022-09-13T00:31:54.378Z,7.55
2022-09-13T00:34:22.229Z,9.20
2022-09-13T00:36:49.959Z,7.68
2022-09-13T00:39:17.655Z,13.25
2022-09-13T00:41:45.425Z,8.75
2022-09-13T00:44:46.745Z,7.80
2022-09-13T00:47:20.661Z,9.65
2022-09-13T00:49:51.409Z,9.30
2022-09-13T00:52:24.123Z,7.10
2022-09-13T00:54:56.877Z,8.88
2022-09-13T00:57:25.549Z,8.20
2022-09-13T00:59:59.615Z,12.82
2022-09-13T01:02:29.786Z,9.23
2022-09-13T01:04:57.709Z,7.18
2022-09-13T01:07:25.555Z,9.45
2022-09-13T01:09:54.304Z,13.65
2022-09-13T01:12:33.314Z,11.60
2022-09-13T01:15:05.138Z,11.55
2022-09-13T01:17:35.936Z,10.35
2022-09-13T01:20:07.687Z,9.38
2022-09-13T01:23:17.499Z,7.78
2022-09-13T01:26:18.427Z,9.18
2022-09-13T01:29:10.841Z,8.40
2022-09-13T01:31:48.972Z,7.20
2022-09-13T01:34:29.336Z,10.77
2022-09-13T01:37:15.743Z,9.18
2022-09-13T01:39:59.181Z,9.48
2022-09-13T01:42:35.387Z,9.68
2022-09-13T01:45:17.911Z,13.88
2022-09-13T01:47:54.646Z,12.98
2022-09-13T01:50:31.855Z,9.20
2022-09-13T01:53:06.375Z,10.52
2022-09-13T01:55:40.044Z,8.55
2022-09-13T01:58:18.105Z,11.10
2022-09-13T02:00:53.423Z,13.20
2022-09-13T02:03:29.579Z,10.38
2022-09-13T02:06:01.799Z,9.90
2022-09-13T02:08:38.792Z,9.18
2022-09-13T02:11:11.626Z,12.05
2022-09-13T02:13:44.046Z,9.73
2022-09-13T02:16:17.640Z,9.57
2022-09-13T02:18:51.896Z,8.95
2022-09-13T02:21:23.384Z,12.15
2022-09-13T02:23:55.504Z,8.05
2022-09-13T02:26:26.398Z,9.13
2022-09-13T02:28:56.852Z,12.23
2022-09-13T02:31:30.147Z,8.40
2022-09-13T02:34:04.275Z,12.43
2022-09-13T02:36:37.768Z,11.77
2022-09-13T02:39:10.325Z,11.25
2022-09-13T02:41:47.833Z,9.98
2022-09-13T02:44:20.740Z,10.00
2022-09-13T02:47:08.010Z,11.18
2022-09-13T02:49:51.575Z,13.25
2022-09-13T02:52:25.357Z,9.57
2022-09-13T02:54:57.661Z,11.50
2022-09-13T02:57:32.292Z,11.93
2022-09-13T03:00:00.999Z,9.18
2022-09-13T03:02:33.555Z,10.75
2022-09-13T03:05:03.006Z,11.82
2022-09-13T03:07:31.017Z,11.00
2022-09-13T03:10:04.919Z,12.98
2022-09-13T03:12:53.812Z,11.82
2022-09-13T03:15:30.401Z,12.52
2022-09-13T03:18:13.505Z,12.73
2022-09-13T03:20:54.047Z,12.90
2022-09-13T03:23:37.975Z,12.45
2022-09-13T03:26:25.739Z,13.25
2022-09-13T03:29:06.207Z,14.63
2022-09-13T03:31:37.399Z,11.85
2022-09-13T03:34:12.056Z,14.07
2022-09-13T03:36:46.912Z,16.10
2022-09-13T03:39:25.667Z,13.27
2022-09-13T03:41:57.859Z,13.55
2022-09-13T03:44:27.883Z,10.88
2022-09-13T03:46:58.839Z,12.05
2022-09-13T03:49:30.055Z,14.88
2022-09-13T03:52:00.427Z,12.73
2022-09-13T03:54:31.463Z,10.10
2022-09-13T03:57:08.506Z,14.77
2022-09-13T03:59:38.692Z,12.32
2022-09-13T04:02:11.749Z,15.48
2022-09-13T04:04:40.422Z,16.88
2022-09-13T04:07:11.304Z,13.52
2022-09-13T04:09:39.344Z,11.52
2022-09-13T04:12:08.331Z,16.05
2022-09-13T04:14:36.071Z,14.70
2022-09-13T04:17:03.806Z,13.68
2022-09-13T04:19:31.806Z,11.02
2022-09-13T04:21:59.660Z,10.55
2022-09-13T04:24:30.286Z,11.73
2022-09-13T04:26:58.256Z,11.98
2022-09-13T04:29:27.259Z,12.57
2022-09-13T04:31:56.235Z,11.55
2022-09-13T04:34:24.767Z,13.30
2022-09-13T04:36:54.654Z,15.75
2022-09-13T04:39:23.835Z,11.57
2022-09-13T04:41:54.864Z,15.25
2022-09-13T04:44:24.443Z,18.48
2022-09-13T04:46:52.315Z,16.30
2022-09-13T04:49:22.030Z,15.40
2022-09-13T04:51:50.872Z,15.65
2022-09-13T04:54:18.950Z,12.20
2022-09-13T04:56:47.436Z,17.10
2022-09-13T04:59:17.071Z,11.20
2022-09-13T05:01:44.859Z,12.45
2022-09-13T05:04:12.850Z,13.85
2022-09-13T05:06:40.605Z,17.42
2022-09-13T05:09:08.352Z,13.63
2022-09-13T05:11:36.061Z,11.93
2022-09-13T05:14:05.709Z,15.55
2022-09-13T05:16:34.993Z,14.55
2022-09-13T05:19:03.672Z,16.58
2022-09-13T05:21:31.938Z,23.48
2022-09-13T05:23:59.819Z,19.85
2022-09-13T05:26:31.302Z,19.50
2022-09-13T05:28:59.804Z,17.33
2022-09-13T05:31:31.316Z,16.90
2022-09-13T05:34:03.411Z,16.75
2022-09-13T05:36:31.167Z,17.17
2022-09-13T05:39:31.841Z,18.05
2022-09-13T05:41:48.160Z,17.92
2022-09-13T05:44:15.896Z,16.65
2022-09-13T05:46:44.127Z,17.05
2022-09-13T05:49:14.680Z,16.48
2022-09-13T05:51:42.491Z,17.48
2022-09-13T05:54:12.764Z,17.58
2022-09-13T05:56:41.137Z,16.30
2022-09-13T05:59:12.648Z,17.20
2022-09-13T06:01:40.395Z,16.88
2022-09-13T06:04:08.189Z,20.67
2022-09-13T06:06:37.202Z,15.35
2022-09-13T06:09:06.624Z,16.73
2022-09-13T06:11:34.399Z,18.10
2022-09-13T06:14:02.159Z,15.40
2022-09-13T06:16:29.883Z,16.15
2022-09-13T06:18:58.891Z,14.60
2022-09-13T06:21:29.102Z,14.23
2022-09-13T06:23:58.934Z,15.27
2022-09-13T06:26:28.867Z,15.60
2022-09-13T06:28:58.517Z,14.25
2022-09-13T06:31:28.351Z,19.63
2022-09-13T06:33:58.401Z,15.07
2022-09-13T06:36:26.449Z,14.25
2022-09-13T06:38:54.265Z,11.88
2022-09-13T06:41:26.297Z,13.55
2022-09-13T06:43:55.356Z,12.55
2022-09-13T06:46:25.310Z,13.32
2022-09-13T06:48:54.144Z,14.43
2022-09-13T06:51:23.945Z,10.80
2022-09-13T06:53:53.392Z,12.93
2022-09-13T06:56:24.334Z,13.93
2022-09-13T06:58:53.699Z,14.77
2022-09-13T07:01:23.675Z,13.18
2022-09-13T07:03:54.326Z,12.25
2022-09-13T07:06:24.159Z,12.25
2022-09-13T07:08:53.065Z,9.13
2022-09-13T07:11:22.589Z,10.25
2022-09-13T07:13:52.551Z,10.68
2022-09-13T07:16:21.907Z,11.00
2022-09-13T07:18:53.249Z,9.10
2022-09-13T07:21:22.218Z,9.60
2022-09-13T07:23:50.715Z,7.82
2022-09-13T07:26:18.593Z,7.72
2022-09-13T07:28:48.988Z,8.63
2022-09-13T07:31:20.692Z,9.15
2022-09-13T07:33:49.923Z,7.65
2022-09-13T07:36:17.677Z,8.52
2022-09-13T07:38:45.880Z,9.48
2022-09-13T07:41:15.816Z,9.00
2022-09-13T07:43:44.727Z,8.80
2022-09-13T07:46:14.359Z,9.75
2022-09-13T07:48:45.466Z,12.63
2022-09-13T07:51:15.079Z,9.10
2022-09-13T07:53:44.265Z,10.95
2022-09-13T07:56:13.605Z,11.10
2022-09-13T07:58:43.178Z,9.05
2022-09-13T08:01:15.355Z,8.93
2022-09-13T08:03:45.606Z,12.90
2022-09-13T08:06:13.340Z,10.43
2022-09-13T08:08:41.052Z,10.00
2022-09-13T08:11:08.813Z,9.07
2022-09-13T08:13:36.522Z,9.25
2022-09-13T08:16:05.903Z,10.68
2022-09-13T08:18:34.315Z,8.88
2022-09-13T08:21:03.482Z,8.63
2022-09-13T08:23:31.340Z,11.20
2022-09-13T08:26:02.636Z,9.27
2022-09-13T08:28:31.560Z,9.82
2022-09-13T08:31:29.522Z,9.75
2022-09-13T08:33:58.719Z,10.10
2022-09-13T08:36:28.832Z,9.70
2022-09-13T08:38:59.215Z,12.20
2022-09-13T08:41:56.866Z,9.60
2022-09-13T08:44:29.414Z,12.10
2022-09-13T08:47:05.132Z,10.70
2022-09-13T08:49:36.905Z,9.52
2022-09-13T08:52:22.986Z,9.90
2022-09-13T08:54:54.880Z,12.55
2022-09-13T08:57:33.162Z,9.15
2022-09-13T09:00:07.110Z,9.07
2022-09-13T09:02:59.095Z,10.57
2022-09-13T09:05:30.297Z,8.02
2022-09-13T09:08:03.917Z,9.77
2022-09-13T09:10:34.661Z,11.20
2022-09-13T09:13:07.502Z,10.00
2022-09-13T09:15:42.194Z,12.98
2022-09-13T09:18:15.256Z,9.95
2022-09-13T09:20:45.382Z,9.15
2022-09-13T09:23:21.438Z,10.40
2022-09-13T09:25:52.912Z,11.15
2022-09-13T09:28:20.918Z,10.70
2022-09-13T09:31:00.006Z,12.30
2022-09-13T09:34:09.470Z,9.63
2022-09-13T09:36:43.305Z,10.18
2022-09-13T09:39:16.279Z,13.10
2022-09-13T09:41:45.273Z,10.48
2022-09-13T09:44:20.226Z,10.68
2022-09-13T09:46:51.104Z,10.65
2022-09-13T09:49:41.286Z,11.27
2022-09-13T09:52:11.706Z,13.57
2022-09-13T09:54:41.714Z,20.38
2022-09-13T09:57:09.488Z,12.90
2022-09-13T09:59:37.290Z,13.50
2022-09-13T10:02:17.117Z,14.63
2022-09-13T10:04:56.095Z,12.85
2022-09-13T10:07:32.378Z,13.02
2022-09-13T10:10:04.775Z,12.48
2022-09-13T10:12:35.238Z,17.15
2022-09-13T10:15:15.447Z,11.55
2022-09-13T10:17:43.703Z,14.13
2022-09-13T10:20:26.717Z,11.77
2022-09-13T10:23:19.727Z,13.38
2022-09-13T10:25:58.694Z,14.52
2022-09-13T10:28:27.638Z,11.05
2022-09-13T10:30:59.822Z,11.30
2022-09-13T10:33:31.375Z,11.20
2022-09-13T10:36:02.202Z,10.68
2022-09-13T10:38:33.081Z,11.27
2022-09-13T10:41:05.580Z,12.98
2022-09-13T10:43:34.098Z,13.38
2022-09-13T10:46:05.726Z,12.15
2022-09-13T10:48:47.091Z,11.60
2022-09-13T10:51:31.053Z,9.75
2022-09-13T10:54:19.299Z,12.68
2022-09-13T10:56:49.377Z,11.95
2022-09-13T10:59:22.141Z,11.05
2022-09-13T11:02:09.713Z,11.18
2022-09-13T11:05:06.905Z,9.77
2022-09-13T11:07:50.169Z,13.63
2022-09-13T11:10:25.667Z,11.63
2022-09-13T11:13:04.553Z,11.98
2022-09-13T11:15:46.217Z,10.25
2022-09-13T11:18:41.101Z,8.70
2022-09-13T11:21:24.662Z,9.70
2022-09-13T11:24:09.758Z,10.10
2022-09-13T11:26:50.111Z,9.60
2022-09-13T11:29:31.047Z,9.55
2022-09-13T11:32:09.419Z,9.05
2022-09-13T11:34:51.317Z,8.95
2022-09-13T11:37:33.950Z,9.57
2022-09-13T11:40:30.684Z,7.45
2022-09-13T11:43:13.027Z,7.22
2022-09-13T11:45:48.223Z,8.98
2022-09-13T11:48:36.642Z,8.27
2022-09-13T11:51:17.105Z,9.95
2022-09-13T11:54:04.744Z,8.40
2022-09-13T11:56:37.283Z,8.07
2022-09-13T11:59:16.637Z,10.38
2022-09-13T12:01:50.259Z,9.27
2022-09-13T12:04:25.459Z,7.80
2022-09-13T12:06:58.762Z,9.43
2022-09-13T12:09:30.619Z,9.48
2022-09-13T12:12:06.132Z,8.90
2022-09-13T12:14:42.814Z,7.57
2022-09-13T12:17:24.041Z,6.72
2022-09-13T12:19:55.430Z,8.45
2022-09-13T12:22:30.238Z,7.13
2022-09-13T12:25:03.321Z,7.55
2022-09-13T12:27:40.221Z,8.48
2022-09-13T12:30:15.980Z,9.82
2022-09-13T12:32:47.182Z,7.80
2022-09-13T12:35:22.996Z,7.45
2022-09-13T12:38:08.774Z,9.20
2022-09-13T12:40:50.730Z,8.88
2022-09-13T12:43:35.512Z,7.43
2022-09-13T12:46:19.858Z,8.88
2022-09-13T12:49:12.288Z,7.75
2022-09-13T12:51:57.068Z,7.60
2022-09-13T12:54:53.725Z,7.40
2022-09-13T12:57:35.871Z,6.72
2022-09-13T13:00:13.463Z,6.60
2022-09-13T13:02:45.509Z,6.75
2022-09-13T13:05:28.753Z,7.75
2022-09-13T13:08:00.590Z,7.65
2022-09-13T13:10:32.166Z,7.68
2022-09-13T13:13:14.138Z,6.57
2022-09-13T13:15:57.829Z,7.82
2022-09-13T13:18:30.071Z,7.60
2022-09-13T13:21:31.950Z,6.88
2022-09-13T13:24:39.013Z,8.60
2022-09-13T13:27:37.528Z,7.55
2022-09-13T13:30:41.139Z,8.57
2022-09-13T13:33:19.705Z,6.00
2022-09-13T13:35:47.970Z,6.15
2022-09-13T13:38:34.554Z,6.55
2022-09-13T13:41:12.704Z,6.47
2022-09-13T13:43:40.833Z,7.95
2022-09-13T13:46:31.184Z,6.65
2022-09-13T13:49:32.077Z,8.70
2022-09-13T13:52:37.126Z,6.90
2022-09-13T13:55:33.521Z,7.32
2022-09-13T13:58:04.048Z,7.40
2022-09-13T14:00:34.541Z,8.15
2022-09-13T14:03:15.289Z,6.72
2022-09-13T14:05:49.976Z,5.80
2022-09-13T14:08:35.543Z,6.78
2022-09-13T14:11:17.010Z,6.15
2022-09-13T14:14:01.153Z,6.35
2022-09-13T14:16:52.215Z,6.63
2022-09-13T14:19:25.252Z,6.97
2022-09-13T14:22:15.311Z,7.65
2022-09-13T14:24:46.343Z,5.93
2022-09-13T14:27:21.794Z,6.85
2022-09-13T14:29:52.011Z,7.13
2022-09-13T14:32:23.094Z,6.80
2022-09-13T14:34:59.477Z,7.78
2022-09-13T14:37:30.999Z,6.78
2022-09-13T14:40:01.553Z,9.15
2022-09-13T14:42:41.268Z,10.32
2022-09-13T14:45:14.242Z,8.32
2022-09-13T14:47:51.797Z,6.90
2022-09-13T14:50:23.662Z,7.22
2022-09-13T14:52:55.384Z,8.15
2022-09-13T14:55:27.510Z,6.93
2022-09-13T14:58:01.832Z,6.15
2022-09-13T15:00:30.576Z,7.03
2022-09-13T15:03:02.756Z,10.07
2022-09-13T15:05:34.309Z,6.53
2022-09-13T15:08:25.353Z,8.15
2022-09-13T15:10:53.654Z,7.05
2022-09-13T15:13:22.988Z,6.53
2022-09-13T15:15:51.249Z,6.18
2022-09-13T15:18:36.458Z,6.57
2022-09-13T15:21:06.446Z,7.80
2022-09-13T15:23:36.400Z,6.50
2022-09-13T15:26:07.821Z,7.07
2022-09-13T15:28:51.101Z,7.47
2022-09-13T15:31:23.872Z,7.15
2022-09-13T15:34:13.962Z,10.63
2022-09-13T15:36:42.329Z,6.93
2022-09-13T15:39:17.988Z,7.97
2022-09-13T15:41:53.711Z,12.02
2022-09-13T15:44:23.391Z,6.60
2022-09-13T15:46:53.931Z,6.82
2022-09-13T15:49:24.733Z,9.40
2022-09-13T15:51:55.643Z,7.05
2022-09-13T15:54:23.755Z,6.10
2022-09-13T15:56:52.503Z,8.15
2022-09-13T15:59:23.236Z,8.98
2022-09-13T16:01:52.953Z,7.40
2022-09-13T16:04:21.001Z,10.40
2022-09-13T16:06:49.023Z,9.98
2022-09-13T16:09:19.468Z,8.10
2022-09-13T16:11:48.060Z,7.82
2022-09-13T16:14:17.827Z,6.40
2022-09-13T16:16:49.099Z,8.70
2022-09-13T16:19:18.695Z,8.02
2022-09-13T16:21:46.652Z,9.45
2022-09-13T16:24:14.916Z,9.48
2022-09-13T16:26:43.311Z,8.70
2022-09-13T16:29:11.910Z,11.48
2022-09-13T16:31:41.095Z,10.68
2022-09-13T16:34:10.747Z,8.25
2022-09-13T16:36:38.925Z,7.68
2022-09-13T16:39:06.786Z,8.88
2022-09-13T16:41:34.565Z,10.05
2022-09-13T16:44:05.079Z,7.10
2022-09-13T16:46:36.466Z,10.38
2022-09-13T16:49:04.928Z,7.65
2022-09-13T16:51:34.234Z,7.93
2022-09-13T16:54:02.816Z,9.13
2022-09-13T16:56:31.275Z,8.45
2022-09-13T16:58:59.243Z,11.02
2022-09-13T17:01:28.842Z,11.13
2022-09-13T17:03:57.270Z,8.25
2022-09-13T17:06:26.659Z,9.98
2022-09-13T17:08:58.807Z,8.50
2022-09-13T17:11:28.128Z,8.45
2022-09-13T17:13:56.679Z,8.77
2022-09-13T17:16:28.016Z,9.77
2022-09-13T17:18:57.241Z,10.98
2022-09-13T17:21:25.559Z,11.93
2022-09-13T17:23:55.196Z,9.63
2022-09-13T17:26:23.546Z,11.73
2022-09-13T17:28:52.607Z,10.05
2022-09-13T17:31:22.134Z,12.80
2022-09-13T17:33:50.064Z,9.80
2022-09-13T17:36:18.225Z,10.35
2022-09-13T17:38:46.323Z,9.18
2022-09-13T17:41:16.989Z,10.57
2022-09-13T17:43:45.792Z,11.95
2022-09-13T17:46:15.550Z,10.30
2022-09-13T17:48:43.483Z,10.68
2022-09-13T17:51:13.368Z,9.60
2022-09-13T17:53:43.855Z,10.70
2022-09-13T17:56:11.592Z,10.75
2022-09-13T17:58:40.626Z,10.15
2022-09-13T18:01:09.999Z,11.20
2022-09-13T18:03:39.120Z,9.77
2022-09-13T18:06:09.030Z,11.95
2022-09-13T18:08:38.908Z,13.95
2022-09-13T18:11:15.493Z,11.98
2022-09-13T18:13:47.914Z,12.85
2022-09-13T18:16:21.253Z,12.23
2022-09-13T18:18:50.561Z,10.98
2022-09-13T18:21:19.715Z,8.93
2022-09-13T18:23:48.970Z,11.38
2022-09-13T18:26:18.525Z,12.15
2022-09-13T18:28:54.704Z,10.80
2022-09-13T18:31:24.038Z,12.25
2022-09-13T18:33:55.951Z,10.82
2022-09-13T18:36:24.068Z,14.52
2022-09-13T18:38:53.168Z,15.23
2022-09-13T18:41:22.476Z,11.73
2022-09-13T18:43:55.677Z,11.40
2022-09-13T18:46:26.979Z,13.23
2022-09-13T18:48:57.535Z,12.82
2022-09-13T18:51:27.446Z,16.90
2022-09-13T18:53:55.721Z,10.73
2022-09-13T18:56:26.006Z,12.00
2022-09-13T18:58:56.453Z,13.85
2022-09-13T19:01:26.652Z,14.40
2022-09-13T19:03:56.197Z,14.88
2022-09-13T19:06:26.634Z,12.23
2022-09-13T19:08:55.856Z,13.52
2022-09-13T19:11:45.153Z,13.90
2022-09-13T19:14:15.982Z,14.02
2022-09-13T19:16:44.857Z,13.50
2022-09-13T19:19:12.907Z,13.40
2022-09-13T19:21:41.097Z,22.25
2022-09-13T19:24:16.191Z,14.80
2022-09-13T19:26:45.970Z,12.40
2022-09-13T19:29:19.774Z,13.43
2022-09-13T19:31:49.610Z,14.35
2022-09-13T19:34:18.875Z,15.48
2022-09-13T19:36:49.578Z,13.38
2022-09-13T19:39:17.893Z,14.15
2022-09-13T19:41:45.689Z,14.55
2022-09-13T19:44:15.044Z,17.42
2022-09-13T19:46:47.215Z,12.63
2022-09-13T19:49:18.056Z,14.20
2022-09-13T19:51:51.517Z,15.85
2022-09-13T19:54:20.576Z,13.77
2022-09-13T19:56:48.330Z,13.73
2022-09-13T19:59:19.691Z,12.43
2022-09-13T20:01:49.316Z,14.65
2022-09-13T20:04:19.955Z,11.10
2022-09-13T20:07:12.162Z,12.02
2022-09-13T20:09:42.055Z,16.48
2022-09-13T20:12:11.378Z,18.42
2022-09-13T20:14:39.217Z,12.25
2022-09-13T20:17:08.853Z,14.65
2022-09-13T20:19:45.066Z,11.07
2022-09-13T20:22:16.922Z,13.20
2022-09-13T20:24:44.727Z,13.35
2022-09-13T20:27:12.442Z,13.00
2022-09-13T20:29:40.385Z,12.30
2022-09-13T20:32:11.023Z,12.80
2022-09-13T20:34:39.941Z,11.00
2022-09-13T20:37:07.653Z,13.18
2022-09-13T20:39:35.732Z,12.48
2022-09-13T20:42:03.567Z,13.25
2022-09-13T20:44:31.295Z,12.43
2022-09-13T20:46:59.015Z,13.50
2022-09-13T20:49:29.249Z,12.20
2022-09-13T20:51:57.136Z,9.93
2022-09-13T20:54:25.862Z,16.83
2022-09-13T20:56:53.615Z,11.40
2022-09-13T20:59:22.674Z,12.40
2022-09-13T21:01:50.828Z,11.93
2022-09-13T21:04:18.628Z,11.77
2022-09-13T21:07:05.496Z,19.70
2022-09-13T21:09:33.484Z,9.82
2022-09-13T21:12:02.375Z,14.40
2022-09-13T21:14:33.961Z,10.63
2022-09-13T21:17:06.263Z,11.02
2022-09-13T21:19:34.117Z,13.30
2022-09-13T21:22:04.093Z,9.95
2022-09-13T21:24:32.174Z,10.20
2022-09-13T21:26:59.915Z,11.73
2022-09-13T21:29:27.636Z,12.50
2022-09-13T21:31:55.894Z,12.77
2022-09-13T21:34:25.068Z,9.27
2022-09-13T21:36:52.773Z,12.23
2022-09-13T21:39:21.830Z,10.63
2022-09-13T21:41:49.888Z,9.82
2022-09-13T21:44:17.847Z,9.55
2022-09-13T21:46:46.705Z,10.82
2022-09-13T21:49:15.858Z,16.17
2022-09-13T21:51:45.481Z,12.10
2022-09-13T21:54:16.466Z,12.02
2022-09-13T21:56:50.293Z,11.73
2022-09-13T21:59:20.171Z,12.70
2022-09-13T22:01:50.405Z,9.88
2022-09-13T22:04:22.055Z,12.27
2022-09-13T22:06:52.235Z,14.32
2022-09-13T22:09:21.207Z,12.13
2022-09-13T22:11:50.556Z,11.82
2022-09-13T22:14:22.351Z,11.40
2022-09-13T22:16:52.530Z,14.32
2022-09-13T22:19:23.460Z,11.70
2022-09-13T22:21:54.111Z,14.05
2022-09-13T22:24:24.031Z,17.55
2022-09-13T22:26:55.349Z,12.30
2022-09-13T22:29:23.596Z,14.25
2022-09-13T22:31:52.727Z,16.48
2022-09-13T22:34:22.143Z,11.48
2022-09-13T22:36:50.215Z,11.80
2022-09-13T22:39:18.335Z,13.52
2022-09-13T22:41:46.459Z,12.73
2022-09-13T22:44:15.748Z,15.40
2022-09-13T22:46:44.994Z,12.15
2022-09-13T22:49:14.093Z,13.82
2022-09-13T22:51:41.895Z,13.35
2022-09-13T22:54:09.686Z,16.50
2022-09-13T22:56:37.877Z,12.73
2022-09-13T22:59:08.132Z,13.55
2022-09-13T23:01:37.940Z,12.90
2022-09-13T23:04:06.785Z,13.40
2022-09-13T23:06:35.646Z,15.88
2022-09-13T23:09:06.510Z,13.45
2022-09-13T23:11:36.588Z,14.07
2022-09-13T23:14:07.017Z,12.73
2022-09-13T23:16:38.674Z,10.73
2022-09-13T23:19:06.865Z,12.10
2022-09-13T23:21:36.969Z,11.45
2022-09-13T23:24:06.713Z,15.18
2022-09-13T23:26:35.239Z,13.40
2022-09-13T23:29:04.831Z,11.63
2022-09-13T23:31:35.062Z,15.70
2022-09-13T23:34:07.373Z,14.55
2022-09-13T23:36:38.117Z,13.30
2022-09-13T23:39:07.932Z,12.40
2022-09-13T23:41:36.082Z,10.75
2022-09-13T23:44:05.031Z,12.95
2022-09-13T23:46:32.849Z,11.60
2022-09-13T23:49:00.567Z,13.25
2022-09-13T23:51:29.829Z,12.50
2022-09-13T23:54:00.581Z,13.25
2022-09-13T23:56:29.939Z,11.40
2022-09-13T23:58:58.823Z,15.35
